Time;durP1;ratioP1;P1;durP2;ratioP2;P2;SDS_P1;SDS_P2;PMS_P1;PMS_P2;Temp;Humidity;BMP_temperature;BMP_pressure;BME280_temperature;BME280_humidity;BME280_pressure;Samples;Min_cycle;Max_cycle;Signal;HPM_P1;HPM_P2
2024/02/08 00:00:35;;;;;;;5.30;3.03;;;8.90;99.90;;;;;;5031552;28;20021;-86
2024/02/08 00:03:03;;;;;;;6.47;3.33;;;8.90;99.90;;;;;;5026094;28;20389;-85
2024/02/08 00:05:28;;;;;;;6.43;3.33;;;8.90;99.90;;;;;;5032718;28;20018;-87
2024/02/08 00:07:54;;;;;;;4.47;2.95;;;8.90;99.90;;;;;;5031335;28;20044;-87
2024/02/08 00:10:19;;;;;;;4.70;2.60;;;8.90;99.90;;;;;;5051682;28;20018;-87
2024/02/08 00:12:45;;;;;;;5.03;3.35;;;8.90;99.90;;;;;;5020233;28;20106;-87
2024/02/08 00:15:11;;;;;;;3.88;2.47;;;8.90;99.90;;;;;;5022649;28;20472;-86
2024/02/08 00:17:36;;;;;;;3.22;2.53;;;8.90;99.90;;;;;;5021249;28;20029;-86
2024/02/08 00:20:02;;;;;;;2.70;2.40;;;8.90;99.90;;;;;;5032189;28;20026;-86
2024/02/08 00:22:28;;;;;;;3.42;2.28;;;8.90;99.90;;;;;;5029337;28;20479;-86
2024/02/08 00:24:55;;;;;;;4.03;2.72;;;8.90;99.90;;;;;;5029341;28;20113;-89
2024/02/08 00:27:20;;;;;;;3.78;2.50;;;8.90;99.90;;;;;;5031931;28;20014;-86
2024/02/08 00:29:46;;;;;;;3.30;2.20;;;8.90;99.90;;;;;;5022182;28;20033;-86
2024/02/08 00:32:12;;;;;;;2.50;2.00;;;8.90;99.90;;;;;;5025335;28;20116;-87
2024/02/08 00:34:38;;;;;;;2.40;2.00;;;8.90;99.90;;;;;;5027829;28;20060;-86
2024/02/08 00:37:05;;;;;;;2.95;1.90;;;8.90;99.90;;;;;;5025016;28;20022;-85
2024/02/08 00:39:31;;;;;;;3.20;2.22;;;8.90;99.90;;;;;;5029430;28;20022;-87
2024/02/08 00:41:58;;;;;;;6.78;2.00;;;8.90;99.90;;;;;;5024777;28;20026;-86
2024/02/08 00:44:30;;;;;;;1.95;1.58;;;8.90;99.90;;;;;;5034151;28;20025;-86
2024/02/08 00:46:56;;;;;;;2.88;1.58;;;8.90;99.90;;;;;;5018663;28;20030;-86
2024/02/08 00:49:21;;;;;;;1.98;1.70;;;8.90;99.90;;;;;;5027002;28;20017;-87
2024/02/08 00:51:50;;;;;;;2.15;1.45;;;8.90;99.90;;;;;;5027844;28;20028;-86
2024/02/08 00:54:16;;;;;;;3.13;1.80;;;8.90;99.90;;;;;;5026488;28;20163;-86
2024/02/08 00:56:42;;;;;;;7.15;1.98;;;8.90;99.90;;;;;;5022014;28;20021;-86
2024/02/08 00:59:09;;;;;;;2.40;2.00;;;8.90;99.90;;;;;;5027097;28;20028;-87
2024/02/08 01:01:34;;;;;;;1.92;1.75;;;8.90;99.90;;;;;;5033355;28;20046;-86
2024/02/08 01:04:00;;;;;;;3.42;2.10;;;8.90;99.90;;;;;;5035368;28;20535;-87
2024/02/08 01:06:26;;;;;;;1.52;1.40;;;8.90;99.90;;;;;;5045656;28;20502;-87
2024/02/08 01:08:54;;;;;;;2.97;1.90;;;8.90;99.90;;;;;;5031918;28;20021;-86
2024/02/08 01:11:20;;;;;;;7.00;1.77;;;8.90;99.90;;;;;;5031029;28;20021;-87
2024/02/08 01:13:45;;;;;;;2.63;2.10;;;9.00;99.90;;;;;;5019922;28;20028;-87
2024/02/08 01:16:11;;;;;;;2.13;1.77;;;8.90;99.90;;;;;;5020409;28;20031;-86
2024/02/08 01:18:41;;;;;;;3.03;2.10;;;8.90;99.90;;;;;;5023320;28;20032;-87
2024/02/08 01:21:08;;;;;;;3.35;1.90;;;8.90;99.90;;;;;;5023831;28;20021;-87
2024/02/08 01:23:34;;;;;;;1.92;1.70;;;8.90;99.90;;;;;;5026394;28;20033;-87
2024/02/08 01:26:03;;;;;;;1.60;1.50;;;8.90;99.90;;;;;;5021390;28;20029;-87
2024/02/08 01:28:29;;;;;;;1.70;1.50;;;8.90;99.90;;;;;;5029442;28;20060;-87
2024/02/08 01:30:54;;;;;;;1.40;1.30;;;8.90;99.90;;;;;;5028889;28;20055;-86
2024/02/08 01:33:20;;;;;;;2.00;1.63;;;8.90;99.90;;;;;;5020126;28;20065;-86
2024/02/08 01:35:46;;;;;;;3.53;1.73;;;9.00;99.90;;;;;;5030202;28;20511;-86
2024/02/08 01:38:16;;;;;;;4.20;1.90;;;8.90;99.90;;;;;;5023047;28;20026;-86
2024/02/08 01:40:45;;;;;;;3.20;1.65;;;8.90;99.90;;;;;;5025896;28;20033;-86
2024/02/08 01:43:10;;;;;;;2.25;1.92;;;8.90;99.90;;;;;;5028080;28;20095;-86
2024/02/08 01:45:41;;;;;;;5.35;1.95;;;8.90;99.90;;;;;;5018103;28;20025;-86
2024/02/08 01:48:10;;;;;;;2.72;1.95;;;8.90;99.90;;;;;;5025022;28;20017;-88
2024/02/08 01:50:38;;;;;;;3.75;2.90;;;8.90;99.90;;;;;;5034005;28;20017;-86
2024/02/08 01:53:08;;;;;;;3.13;2.50;;;9.00;99.90;;;;;;5019562;28;20050;-86
2024/02/08 01:55:34;;;;;;;3.87;2.77;;;8.90;99.90;;;;;;5034631;28;20029;-87
2024/02/08 01:58:07;;;;;;;3.38;2.72;;;8.90;99.90;;;;;;5043001;28;20021;-87
2024/02/08 02:00:36;;;;;;;3.38;2.88;;;8.90;99.90;;;;;;5020647;28;20075;-86
2024/02/08 02:03:03;;;;;;;4.88;3.33;;;8.90;99.90;;;;;;5025273;28;20029;-87
2024/02/08 02:05:29;;;;;;;3.30;2.92;;;8.90;99.90;;;;;;5054808;28;20037;-87
2024/02/08 02:07:56;;;;;;;3.13;2.63;;;8.90;99.90;;;;;;5023105;28;20028;-87
2024/02/08 02:10:29;;;;;;;3.78;3.25;;;8.90;99.90;;;;;;5024928;28;20048;-86
2024/02/08 02:12:58;;;;;;;4.22;3.00;;;8.90;99.90;;;;;;5026242;28;20071;-86
2024/02/08 02:15:23;;;;;;;3.88;2.72;;;8.90;99.90;;;;;;5027697;28;20036;-86
2024/02/08 02:17:49;;;;;;;2.38;2.17;;;8.90;99.90;;;;;;5031260;28;20406;-87
2024/02/08 02:20:18;;;;;;;3.55;2.40;;;8.90;99.90;;;;;;5029149;28;20546;-88
2024/02/08 02:22:47;;;;;;;2.47;2.25;;;9.00;99.90;;;;;;5029505;28;20029;-86
2024/02/08 02:25:16;;;;;;;4.00;2.22;;;9.00;99.90;;;;;;5038363;28;20033;-86
2024/02/08 02:27:42;;;;;;;2.40;1.88;;;9.00;99.90;;;;;;5025821;28;20096;-86
2024/02/08 02:30:17;;;;;;;1.83;1.73;;;8.90;99.90;;;;;;5024579;28;20033;-87
2024/02/08 02:32:47;;;;;;;2.05;1.77;;;9.00;99.90;;;;;;5024828;28;20057;-86
2024/02/08 02:35:17;;;;;;;2.03;1.75;;;9.00;99.90;;;;;;5027146;28;20028;-87
2024/02/08 02:37:46;;;;;;;3.28;1.50;;;8.90;99.90;;;;;;5020076;28;20113;-85
2024/02/08 02:40:23;;;;;;;1.55;1.40;;;9.00;99.90;;;;;;5038711;28;20483;-86
2024/02/08 02:42:52;;;;;;;1.20;1.10;;;9.00;99.90;;;;;;5025591;28;20036;-87
2024/02/08 02:45:28;;;;;;;3.47;1.42;;;8.90;99.90;;;;;;5030897;28;20028;-86
2024/02/08 02:47:55;;;;;;;1.45;1.35;;;8.90;99.90;;;;;;5032348;28;20049;-87
2024/02/08 02:50:24;;;;;;;2.22;1.20;;;8.90;99.90;;;;;;5025138;28;20024;-85
2024/02/08 02:52:50;;;;;;;1.20;1.10;;;8.90;99.90;;;;;;5025282;28;20017;-87
2024/02/08 02:55:17;;;;;;;2.67;1.30;;;8.90;99.90;;;;;;5028538;28;20053;-87
2024/02/08 02:57:43;;;;;;;1.65;1.33;;;8.90;99.90;;;;;;5033172;28;20033;-87
2024/02/08 03:00:23;;;;;;;2.17;1.50;;;8.90;99.90;;;;;;5030373;28;20026;-86
2024/02/08 03:02:57;;;;;;;1.40;1.30;;;9.00;99.90;;;;;;5029827;28;20049;-86
2024/02/08 03:05:24;;;;;;;1.25;1.15;;;8.90;99.90;;;;;;5030147;28;20446;-86
2024/02/08 03:07:50;;;;;;;1.77;1.30;;;9.00;99.90;;;;;;5028797;28;20506;-88
2024/02/08 03:10:19;;;;;;;5.85;1.40;;;8.90;99.90;;;;;;5041210;28;20091;-86
2024/02/08 03:12:51;;;;;;;1.58;1.20;;;8.90;99.90;;;;;;5024153;28;20021;-86
2024/02/08 03:15:22;;;;;;;1.40;1.25;;;8.90;99.90;;;;;;5036647;28;20021;-86
2024/02/08 03:17:47;;;;;;;1.35;1.25;;;8.90;99.90;;;;;;5037912;28;20025;-86
2024/02/08 03:20:32;;;;;;;1.52;1.23;;;8.90;99.90;;;;;;5035725;28;20105;-86
2024/02/08 03:22:58;;;;;;;3.47;1.30;;;8.90;99.90;;;;;;5035579;28;20096;-86
2024/02/08 03:25:24;;;;;;;1.58;1.15;;;8.90;99.90;;;;;;5029819;28;20100;-87
2024/02/08 03:27:51;;;;;;;2.40;1.20;;;8.90;99.90;;;;;;5023975;28;20084;-86
2024/02/08 03:30:22;;;;;;;1.00;0.90;;;8.90;99.90;;;;;;5024631;28;20390;-86
2024/02/08 03:32:52;;;;;;;1.15;1.00;;;8.90;99.90;;;;;;5029676;28;20075;-87
2024/02/08 03:35:24;;;;;;;1.23;0.80;;;8.90;99.90;;;;;;5027275;28;20514;-86
2024/02/08 03:37:54;;;;;;;1.55;1.20;;;8.90;99.90;;;;;;5039234;28;20036;-87
2024/02/08 03:40:20;;;;;;;1.30;1.20;;;9.00;99.90;;;;;;5027947;28;20013;-87
2024/02/08 03:42:47;;;;;;;1.50;1.15;;;9.00;99.90;;;;;;5028031;28;20054;-87
2024/02/08 03:45:13;;;;;;;4.40;1.08;;;9.00;99.90;;;;;;5025964;28;20029;-87
2024/02/08 03:47:39;;;;;;;1.25;0.98;;;8.90;99.90;;;;;;5027025;28;20018;-88
2024/02/08 03:50:05;;;;;;;1.55;1.17;;;8.90;99.90;;;;;;5030923;28;20388;-86
2024/02/08 03:52:31;;;;;;;2.13;1.20;;;8.90;99.90;;;;;;5030683;28;20048;-86
2024/02/08 03:54:59;;;;;;;1.33;1.08;;;9.00;99.90;;;;;;5031128;28;20017;-86
2024/02/08 03:57:25;;;;;;;1.30;1.10;;;8.90;99.90;;;;;;5028774;28;20025;-86
2024/02/08 03:59:52;;;;;;;3.40;1.08;;;8.90;99.90;;;;;;5029888;28;20033;-87
2024/02/08 04:02:21;;;;;;;1.23;0.80;;;9.00;99.90;;;;;;5027133;28;20049;-86
2024/02/08 04:04:52;;;;;;;1.05;0.93;;;9.00;99.90;;;;;;5026641;28;20017;-85
2024/02/08 04:53:56;;;;;;;2.90;1.60;;;9.00;99.90;;;;;;5026261;28;20024;-86
2024/02/08 04:56:22;;;;;;;2.67;1.77;;;9.00;99.90;;;;;;5027616;28;20025;-87
2024/02/08 04:58:50;;;;;;;2.15;1.85;;;9.00;99.90;;;;;;5028544;28;20017;-86
2024/02/08 05:01:17;;;;;;;2.72;1.85;;;9.00;99.90;;;;;;5027328;28;20029;-86
2024/02/08 05:03:43;;;;;;;3.63;2.33;;;9.00;99.90;;;;;;5032733;28;20013;-87
2024/02/08 05:06:18;;;;;;;3.10;2.20;;;9.00;99.90;;;;;;5027104;28;20021;-86
2024/02/08 05:08:48;;;;;;;5.57;3.38;;;8.90;99.90;;;;;;5020799;28;20018;-86
2024/02/08 05:11:15;;;;;;;7.25;3.30;;;9.00;99.90;;;;;;5035603;28;20052;-86
2024/02/08 05:13:49;;;;;;;4.90;3.22;;;9.00;99.90;;;;;;5033194;28;20613;-86
2024/02/08 05:16:16;;;;;;;7.15;3.45;;;9.00;99.90;;;;;;5032526;28;20013;-86
2024/02/08 05:18:47;;;;;;;4.25;3.03;;;9.00;99.90;;;;;;5030216;28;20033;-86
2024/02/08 05:21:14;;;;;;;5.22;3.72;;;9.00;99.90;;;;;;5028420;28;20029;-86
2024/02/08 05:23:43;;;;;;;4.90;3.17;;;9.00;99.90;;;;;;5029756;28;20032;-89
2024/02/08 05:26:18;;;;;;;4.88;3.33;;;9.00;99.90;;;;;;5033406;28;20043;-87
2024/02/08 05:28:47;;;;;;;6.32;3.88;;;9.00;99.90;;;;;;5031048;28;20458;-87
2024/02/08 05:31:14;;;;;;;4.53;3.13;;;9.00;99.90;;;;;;5022790;28;20029;-86
2024/02/08 05:33:42;;;;;;;5.38;3.40;;;9.00;99.90;;;;;;5029353;28;20111;-86
2024/02/08 05:36:10;;;;;;;6.43;2.75;;;9.00;99.90;;;;;;5032308;28;20094;-86
2024/02/08 05:38:42;;;;;;;5.03;3.13;;;9.00;99.90;;;;;;5028332;28;20017;-87
2024/02/08 05:41:09;;;;;;;3.88;2.75;;;9.00;99.90;;;;;;5027929;28;20025;-86
2024/02/08 05:43:44;;;;;;;8.52;3.20;;;9.00;99.90;;;;;;5029323;28;20025;-86
2024/02/08 05:46:28;;;;;;;2.65;2.30;;;9.00;99.90;;;;;;5025612;28;20476;-86
2024/02/08 05:49:03;;;;;;;5.57;2.80;;;9.00;99.90;;;;;;5029718;28;20029;-86
2024/02/08 05:51:30;;;;;;;5.22;2.90;;;9.00;99.90;;;;;;5028522;28;20103;-87
2024/02/08 05:53:56;;;;;;;5.78;2.70;;;9.00;99.90;;;;;;5033310;28;20507;-87
2024/02/08 05:56:22;;;;;;;6.85;3.10;;;9.00;99.90;;;;;;5025543;28;20120;-87
2024/02/08 05:58:51;;;;;;;6.03;2.70;;;9.00;99.90;;;;;;5031856;28;20049;-89
2024/02/08 06:01:22;;;;;;;5.10;2.88;;;9.00;99.90;;;;;;5024121;28;20459;-87
2024/02/08 06:03:48;;;;;;;3.35;2.50;;;8.90;99.90;;;;;;5030369;28;20021;-86
2024/02/08 06:06:26;;;;;;;4.93;2.30;;;9.00;99.90;;;;;;5024261;28;20033;-86
2024/02/08 06:08:56;;;;;;;3.55;2.42;;;9.00;99.90;;;;;;5031327;28;20010;-86
2024/02/08 06:11:23;;;;;;;3.65;2.67;;;9.00;99.90;;;;;;5038469;28;20519;-87
2024/02/08 06:14:06;;;;;;;6.95;2.40;;;8.90;99.90;;;;;;5029137;28;20020;-86
2024/02/08 06:16:45;;;;;;;5.53;2.55;;;8.90;99.90;;;;;;5025483;28;20496;-86
2024/02/08 06:19:14;;;;;;;3.15;2.10;;;8.90;99.90;;;;;;5037146;28;20507;-87
2024/02/08 06:21:40;;;;;;;3.55;2.22;;;8.90;99.90;;;;;;5032636;28;20025;-88
2024/02/08 06:26:55;;;;;;;4.63;2.15;;;9.00;99.90;;;;;;5034936;28;20486;-88
2024/02/08 06:29:26;;;;;;;5.15;2.13;;;9.00;99.90;;;;;;5023351;28;20022;-87
2024/02/08 06:32:00;;;;;;;;;;;9.00;99.90;;;;;;5024178;28;20026;-86
2024/02/08 06:34:42;;;;;;;2.80;1.63;;;8.90;99.90;;;;;;5032120;28;19920;-87
2024/02/08 06:37:31;;;;;;;3.95;2.08;;;9.00;99.90;;;;;;5033337;28;20025;-85
2024/02/08 06:39:57;;;;;;;3.72;1.65;;;8.90;99.90;;;;;;5031368;28;20483;-86
2024/02/08 06:48:14;;;;;;;3.35;1.80;;;9.00;99.90;;;;;;5033239;28;20049;-86
2024/02/08 07:37:17;;;;;;;1.75;1.52;;;9.00;99.90;;;;;;5029989;28;20036;-86
2024/02/08 07:39:47;;;;;;;2.45;1.75;;;9.00;99.90;;;;;;5028833;28;20017;-86
2024/02/08 07:42:20;;;;;;;1.97;1.73;;;9.10;99.90;;;;;;5044860;28;20021;-87
2024/02/08 07:44:52;;;;;;;1.90;1.50;;;9.00;99.90;;;;;;5029501;28;20021;-87
2024/02/08 07:47:24;;;;;;;3.80;1.40;;;9.00;99.90;;;;;;5029132;28;20656;-87
2024/02/08 07:50:04;;;;;;;4.20;1.88;;;9.00;99.90;;;;;;5029680;28;20152;-87
2024/02/08 07:52:45;;;;;;;3.03;1.40;;;9.00;99.90;;;;;;5026152;28;20017;-87
2024/02/08 07:55:20;;;;;;;5.20;1.60;;;9.00;99.90;;;;;;5034650;28;20032;-86
2024/02/08 07:57:57;;;;;;;2.28;1.42;;;9.00;99.90;;;;;;5030100;28;20104;-86
2024/02/08 08:03:23;;;;;;;2.45;1.52;;;9.10;99.90;;;;;;5021753;28;20432;-86
2024/02/08 08:05:56;;;;;;;2.38;1.45;;;9.00;99.90;;;;;;5026073;28;20116;-87
2024/02/08 08:08:24;;;;;;;1.83;1.70;;;9.10;99.90;;;;;;5022783;28;20095;-87
2024/02/08 08:11:05;;;;;;;2.33;1.42;;;9.10;99.90;;;;;;5018399;28;20623;-87
2024/02/08 08:13:50;;;;;;;3.60;1.80;;;9.10;99.90;;;;;;5027271;28;20034;-86
2024/02/08 08:18:58;;;;;;;1.75;1.45;;;9.10;99.90;;;;;;5028337;28;20144;-88
2024/02/08 08:21:29;;;;;;;2.30;1.60;;;9.10;99.90;;;;;;5021950;28;20037;-87
2024/02/08 08:24:02;;;;;;;2.47;1.92;;;9.10;99.90;;;;;;5023475;28;20591;-86
2024/02/08 08:26:39;;;;;;;2.80;1.50;;;9.10;99.90;;;;;;5017282;28;20061;-87
2024/02/08 08:29:14;;;;;;;3.60;1.45;;;9.10;99.90;;;;;;5020519;28;20025;-86
2024/02/08 08:31:51;;;;;;;3.17;1.85;;;9.10;99.90;;;;;;5028560;28;20071;-86
2024/02/08 08:35:37;;;;;;;2.75;1.30;;;9.10;99.90;;;;;;5012435;28;20038;-86
2024/02/08 08:37:38;;;;;;;2.35;1.55;;;9.10;99.90;;;;;;5025814;28;20391;-87
2024/02/08 08:42:34;;;;;;;2.88;1.48;;;9.10;99.90;;;;;;5027365;28;20109;-88
2024/02/08 08:45:04;;;;;;;1.50;1.40;;;9.10;99.90;;;;;;5043271;28;20035;-86
2024/02/08 08:47:30;;;;;;;2.38;1.60;;;9.10;99.90;;;;;;5030266;28;20025;-87
2024/02/08 08:49:56;;;;;;;1.40;1.10;;;9.10;99.90;;;;;;5028249;28;20036;-86
2024/02/08 08:52:25;;;;;;;1.58;1.40;;;9.10;99.90;;;;;;5034247;28;20087;-86
2024/02/08 08:55:01;;;;;;;2.42;1.35;;;9.10;99.90;;;;;;5032041;28;20084;-86
2024/02/08 08:57:27;;;;;;;1.40;1.10;;;9.20;99.90;;;;;;5024546;28;20079;-87
2024/02/08 08:59:56;;;;;;;1.40;1.30;;;9.20;99.90;;;;;;5026152;28;20434;-87
2024/02/08 09:02:22;;;;;;;1.40;1.30;;;9.20;99.90;;;;;;5031180;28;20029;-86
2024/02/08 09:04:51;;;;;;;2.60;1.27;;;9.20;99.90;;;;;;5030777;28;20026;-86
2024/02/08 09:07:17;;;;;;;1.80;1.70;;;9.20;99.90;;;;;;5046271;28;20014;-86
2024/02/08 09:09:57;;;;;;;1.40;1.30;;;9.20;99.90;;;;;;5028622;28;20057;-86
2024/02/08 09:12:36;;;;;;;2.08;1.40;;;9.20;99.90;;;;;;5027181;28;20028;-86
2024/02/08 09:15:19;;;;;;;1.42;1.25;;;9.20;99.90;;;;;;5029190;28;20025;-86
2024/02/08 09:17:51;;;;;;;1.20;1.05;;;9.30;99.90;;;;;;5029492;28;20188;-87
2024/02/08 09:20:23;;;;;;;1.42;1.23;;;9.40;99.90;;;;;;5034101;28;20112;-86
2024/02/08 09:22:53;;;;;;;1.45;1.10;;;9.50;99.90;;;;;;5028281;28;20021;-88
2024/02/08 09:25:19;;;;;;;2.17;1.35;;;9.60;99.90;;;;;;5031111;28;20025;-87
2024/02/08 09:27:53;;;;;;;2.20;1.25;;;9.60;99.90;;;;;;5028535;28;20097;-87
2024/02/08 09:30:37;;;;;;;4.82;1.40;;;9.70;99.90;;;;;;5022885;28;20108;-87
2024/02/08 09:33:13;;;;;;;1.35;1.20;;;9.70;99.90;;;;;;5035526;28;20022;-88
2024/02/08 09:35:41;;;;;;;1.10;1.00;;;9.60;99.90;;;;;;5020737;28;20018;-86
2024/02/08 09:38:07;;;;;;;1.85;1.35;;;9.60;99.90;;;;;;5028605;28;20108;-87
2024/02/08 09:40:45;;;;;;;1.88;1.08;;;9.60;99.90;;;;;;5027469;28;20100;-86
2024/02/08 09:43:17;;;;;;;1.85;1.00;;;9.60;99.90;;;;;;5023883;28;20017;-85
2024/02/08 09:46:05;;;;;;;2.75;1.55;;;9.60;99.90;;;;;;5024427;28;20028;-86
2024/02/08 09:48:48;;;;;;;1.45;1.10;;;9.60;99.90;;;;;;5035277;28;20021;-87
2024/02/08 09:51:23;;;;;;;1.45;1.13;;;9.60;99.90;;;;;;5035038;28;20102;-87
2024/02/08 09:53:52;;;;;;;1.83;1.40;;;9.60;99.90;;;;;;5031598;28;20063;-86
2024/02/08 09:56:28;;;;;;;1.50;1.40;;;9.70;99.90;;;;;;5033833;28;20479;-86
2024/02/08 09:58:56;;;;;;;3.65;1.30;;;9.70;99.90;;;;;;5026831;28;20033;-87
2024/02/08 10:01:22;;;;;;;1.63;1.10;;;9.70;99.90;;;;;;5032018;28;20491;-87
2024/02/08 10:04:42;;;;;;;1.20;1.10;;;9.60;99.90;;;;;;5035312;28;20403;-86
2024/02/08 10:09:41;;;;;;;3.00;1.52;;;9.60;99.90;;;;;;5028131;28;20535;-86
2024/02/08 10:12:20;;;;;;;1.15;1.05;;;9.60;99.90;;;;;;5035925;28;20029;-87
2024/02/08 10:14:50;;;;;;;2.47;1.50;;;9.80;99.90;;;;;;5037032;28;20025;-86
2024/02/08 10:17:28;;;;;;;2.30;1.25;;;9.80;99.90;;;;;;5039175;28;20025;-87
2024/02/08 10:23:00;;;;;;;3.53;1.55;;;9.90;99.90;;;;;;5033814;28;20079;-86
2024/02/08 10:28:21;;;;;;;2.25;1.45;;;10.10;99.90;;;;;;5040495;28;20060;-87
2024/02/08 10:30:56;;;;;;;1.33;1.23;;;10.10;99.90;;;;;;5038626;28;20104;-86
2024/02/08 10:33:24;;;;;;;1.88;1.23;;;10.10;99.90;;;;;;5029516;28;20066;-85
2024/02/08 10:35:53;;;;;;;1.25;0.90;;;10.10;99.90;;;;;;5031863;28;20013;-87
2024/02/08 10:38:35;;;;;;;1.33;1.20;;;10.10;99.90;;;;;;5029896;28;20099;-87
2024/02/08 10:41:02;;;;;;;1.23;0.98;;;10.00;99.90;;;;;;5050147;28;20435;-86
2024/02/08 10:43:37;;;;;;;2.20;0.90;;;10.00;99.90;;;;;;5032986;28;20025;-87
2024/02/08 10:46:02;;;;;;;1.65;1.08;;;9.90;99.90;;;;;;5033668;28;20033;-87
2024/02/08 10:48:29;;;;;;;0.95;0.80;;;9.90;99.90;;;;;;5034635;28;20406;-86
2024/02/08 10:51:11;;;;;;;1.00;0.90;;;9.80;99.90;;;;;;5051062;28;20017;-86
2024/02/08 10:54:23;;;;;;;3.47;0.93;;;9.70;99.90;;;;;;5037839;28;20028;-86
2024/02/08 10:56:40;;;;;;;1.48;1.17;;;9.70;99.90;;;;;;5029432;28;20056;-86
2024/02/08 11:04:18;;;;;;;1.85;1.20;;;9.60;99.90;;;;;;5030640;28;20063;-87
2024/02/08 11:09:38;;;;;;;3.00;1.20;;;9.60;99.90;;;;;;5030995;28;20031;-86
2024/02/08 11:12:14;;;;;;;4.43;1.30;;;9.60;99.90;;;;;;5033025;28;20100;-87
2024/02/08 11:14:46;;;;;;;2.72;1.00;;;9.60;99.90;;;;;;5023615;28;20053;-87
2024/02/08 11:17:21;;;;;;;3.30;1.10;;;9.60;99.90;;;;;;5034830;28;20021;-88
2024/02/08 11:19:57;;;;;;;1.58;1.17;;;9.50;99.90;;;;;;5046818;28;20035;-87
2024/02/08 11:22:42;;;;;;;1.27;1.02;;;9.50;99.90;;;;;;5044263;28;20021;-86
2024/02/08 11:25:18;;;;;;;1.40;0.98;;;9.50;99.90;;;;;;5029729;28;20112;-86
2024/02/08 11:27:47;;;;;;;1.00;1.00;;;9.50;99.90;;;;;;5028464;28;20239;-86
2024/02/08 11:30:19;;;;;;;4.18;1.45;;;9.50;99.90;;;;;;5033057;28;20071;-85
2024/02/08 11:33:02;;;;;;;1.48;0.95;;;9.50;99.90;;;;;;5029585;28;20113;-88
2024/02/08 11:35:32;;;;;;;0.82;0.80;;;9.60;99.90;;;;;;5039830;28;20519;-86
2024/02/08 11:38:16;;;;;;;1.15;1.05;;;9.70;99.90;;;;;;5032346;28;20021;-87
2024/02/08 11:40:46;;;;;;;1.58;1.00;;;9.80;99.90;;;;;;5051524;28;20137;-87
2024/02/08 11:43:25;;;;;;;3.38;1.10;;;9.90;99.90;;;;;;5021718;28;20030;-88
2024/02/08 11:45:55;;;;;;;1.13;0.98;;;9.90;99.90;;;;;;5034281;28;20044;-87
2024/02/08 11:48:31;;;;;;;1.17;1.08;;;9.90;99.90;;;;;;5021512;28;20104;-87
2024/02/08 11:51:08;;;;;;;0.85;0.82;;;9.90;99.90;;;;;;5024013;28;20164;-86
2024/02/08 11:53:34;;;;;;;3.50;1.10;;;9.80;99.90;;;;;;5030505;28;20109;-86
2024/02/08 11:56:07;;;;;;;1.58;1.10;;;9.80;99.90;;;;;;5038656;28;20100;-88
2024/02/08 11:58:42;;;;;;;0.82;0.82;;;9.80;99.90;;;;;;5030466;28;20049;-86
2024/02/08 12:01:14;;;;;;;1.08;0.98;;;9.80;99.90;;;;;;5047299;28;20038;-87
2024/02/08 12:03:44;;;;;;;1.73;1.00;;;9.70;99.90;;;;;;5028375;28;20022;-87
2024/02/08 12:06:18;;;;;;;1.63;1.40;;;9.80;99.90;;;;;;5034167;28;20026;-87
2024/02/08 12:08:59;;;;;;;2.13;1.02;;;9.80;99.90;;;;;;5044589;28;20030;-87
2024/02/08 12:11:32;;;;;;;0.70;0.70;;;9.80;99.90;;;;;;5045125;28;20528;-87
2024/02/08 12:14:11;;;;;;;0.80;0.80;;;9.90;99.90;;;;;;5029219;28;20045;-86
2024/02/08 12:16:46;;;;;;;1.42;1.05;;;10.00;99.90;;;;;;5031657;28;20017;-87
2024/02/08 12:19:18;;;;;;;1.10;1.00;;;9.90;99.90;;;;;;5027171;28;20057;-87
2024/02/08 12:21:56;;;;;;;0.75;0.75;;;9.90;99.90;;;;;;5029579;28;20022;-87
2024/02/08 12:24:23;;;;;;;1.95;1.10;;;9.90;99.90;;;;;;5024073;28;20487;-87
2024/02/08 12:26:54;;;;;;;1.20;0.90;;;9.90;99.90;;;;;;5031630;28;20013;-86
2024/02/08 12:29:25;;;;;;;0.93;0.90;;;9.80;99.90;;;;;;5030511;28;20025;-88
2024/02/08 12:31:54;;;;;;;0.80;0.80;;;9.90;99.90;;;;;;5029447;28;20550;-86
2024/02/08 12:34:31;;;;;;;0.60;0.60;;;9.80;99.90;;;;;;5027186;28;20044;-87
2024/02/08 12:37:04;;;;;;;2.00;1.23;;;9.90;99.90;;;;;;5034473;28;20049;-87
2024/02/08 12:39:34;;;;;;;2.63;0.80;;;9.90;99.90;;;;;;5040988;28;20057;-87
2024/02/08 12:42:04;;;;;;;0.60;0.60;;;9.80;99.90;;;;;;5024941;28;20495;-88
2024/02/08 12:44:31;;;;;;;0.98;0.88;;;9.80;99.90;;;;;;5027280;28;20431;-87
2024/02/08 12:46:57;;;;;;;0.80;0.80;;;9.80;99.90;;;;;;5028974;28;20109;-87
2024/02/08 12:49:24;;;;;;;0.85;0.85;;;9.80;99.90;;;;;;5034032;28;20096;-86
2024/02/08 12:51:50;;;;;;;1.45;0.90;;;9.80;99.90;;;;;;5023841;28;20022;-87
2024/02/08 12:54:16;;;;;;;1.20;0.80;;;9.80;99.90;;;;;;5028831;28;20029;-86
2024/02/08 12:56:45;;;;;;;1.15;0.80;;;9.70;99.90;;;;;;5027441;28;20025;-87
2024/02/08 12:59:11;;;;;;;1.20;1.00;;;9.70;99.90;;;;;;5021894;28;20040;-86
2024/02/08 13:01:47;;;;;;;1.02;0.88;;;9.80;99.90;;;;;;5023028;28;20018;-86
2024/02/08 13:04:22;;;;;;;0.75;0.73;;;9.70;99.90;;;;;;5023942;28;20030;-87
2024/02/08 13:06:49;;;;;;;0.82;0.80;;;9.80;99.90;;;;;;5028798;28;20045;-85
2024/02/08 13:09:26;;;;;;;0.68;0.68;;;9.80;99.90;;;;;;5020964;28;20107;-87
2024/02/08 13:12:15;;;;;;;1.33;0.70;;;9.80;99.90;;;;;;5019683;28;20018;-86
2024/02/08 13:14:48;;;;;;;2.85;1.15;;;9.80;99.90;;;;;;5031916;28;20021;-87
2024/02/08 13:17:20;;;;;;;0.95;0.93;;;9.90;99.90;;;;;;5035928;28;20389;-87
2024/02/08 13:19:54;;;;;;;1.05;0.82;;;10.00;99.90;;;;;;5026845;28;20021;-86
2024/02/08 13:22:31;;;;;;;1.77;1.00;;;10.00;99.90;;;;;;5022008;28;20029;-87
2024/02/08 13:24:57;;;;;;;0.80;0.80;;;10.00;99.90;;;;;;5028928;28;20026;-86
2024/02/08 13:27:28;;;;;;;1.65;1.30;;;10.00;99.90;;;;;;5030290;28;20068;-87
2024/02/08 13:29:55;;;;;;;2.30;1.10;;;9.90;99.90;;;;;;5029049;28;20100;-86
2024/02/08 13:32:25;;;;;;;3.80;1.35;;;9.90;99.90;;;;;;5029472;28;20024;-87
2024/02/08 13:34:52;;;;;;;1.70;1.60;;;9.90;99.90;;;;;;5023544;28;20482;-87
2024/02/08 13:37:18;;;;;;;2.65;1.00;;;9.90;99.90;;;;;;5027584;28;20037;-86
2024/02/08 13:39:43;;;;;;;3.10;1.00;;;9.90;99.90;;;;;;5023078;28;20021;-88
2024/02/08 13:42:11;;;;;;;2.45;1.15;;;9.80;99.90;;;;;;5025841;28;20025;-86
2024/02/08 13:44:36;;;;;;;0.82;0.80;;;9.80;99.90;;;;;;5018394;28;20026;-86
2024/02/08 13:47:05;;;;;;;1.90;1.15;;;9.80;99.90;;;;;;5027599;28;20028;-86
2024/02/08 13:49:34;;;;;;;3.22;1.27;;;9.80;99.90;;;;;;5040283;28;20017;-88
2024/02/08 13:52:01;;;;;;;9.73;1.43;;;9.80;99.90;;;;;;5030800;28;20024;-87
2024/02/08 13:54:28;;;;;;;2.70;1.30;;;9.70;99.90;;;;;;5032670;28;20026;-86
2024/02/08 13:56:55;;;;;;;1.10;1.00;;;9.70;99.90;;;;;;5040833;28;20079;-86
2024/02/08 13:59:21;;;;;;;1.80;1.10;;;9.70;99.90;;;;;;5025842;28;20017;-87
2024/02/08 14:01:46;;;;;;;4.05;1.30;;;9.70;99.90;;;;;;5018097;28;20105;-86
2024/02/08 14:04:20;;;;;;;3.22;1.42;;;9.70;99.90;;;;;;5034207;28;20026;-87
2024/02/08 14:06:51;;;;;;;8.20;1.70;;;9.70;99.90;;;;;;5029502;28;20013;-87
2024/02/08 14:09:20;;;;;;;5.15;2.00;;;9.60;99.90;;;;;;5029912;28;20407;-87
2024/02/08 14:11:52;;;;;;;5.03;1.30;;;9.60;99.90;;;;;;5027239;28;20788;-87
2024/02/08 14:14:19;;;;;;;2.38;1.17;;;9.60;99.90;;;;;;5030724;28;20049;-86
2024/02/08 14:16:52;;;;;;;3.20;1.38;;;9.60;99.90;;;;;;5029217;28;20013;-86
2024/02/08 14:19:21;;;;;;;3.05;1.30;;;9.60;99.90;;;;;;5036826;28;20030;-86
2024/02/08 14:21:47;;;;;;;3.25;1.17;;;9.60;99.90;;;;;;5030258;28;20025;-87
2024/02/08 14:24:14;;;;;;;5.05;2.03;;;9.60;99.90;;;;;;5028864;28;20041;-88
2024/02/08 14:26:43;;;;;;;9.20;1.70;;;9.60;99.90;;;;;;5021047;28;20112;-87
2024/02/08 14:29:09;;;;;;;2.25;1.77;;;9.60;99.90;;;;;;5028296;28;20021;-87
2024/02/08 14:31:38;;;;;;;4.10;2.00;;;9.60;99.90;;;;;;5029034;28;20017;-85
2024/02/08 14:34:06;;;;;;;4.78;1.58;;;9.60;99.90;;;;;;5033297;28;20030;-86
2024/02/08 14:36:32;;;;;;;4.78;1.65;;;9.60;99.90;;;;;;5035459;28;20418;-87
2024/02/08 14:38:58;;;;;;;6.32;2.05;;;9.60;99.90;;;;;;5032379;28;20543;-86
2024/02/08 14:41:32;;;;;;;5.85;1.85;;;9.70;99.90;;;;;;5021617;28;20010;-86
2024/02/08 14:44:08;;;;;;;3.90;1.38;;;9.60;99.90;;;;;;5032159;28;20014;-87
2024/02/08 14:46:36;;;;;;;10.43;1.52;;;9.60;99.90;;;;;;5034956;28;20031;-87
2024/02/08 14:49:17;;;;;;;4.68;1.50;;;9.70;99.90;;;;;;5029100;28;20028;-87
2024/02/08 14:51:47;;;;;;;5.20;2.08;;;9.70;99.90;;;;;;5029151;28;20526;-87
2024/02/08 14:54:13;;;;;;;6.15;1.85;;;9.70;99.90;;;;;;5028657;28;20037;-88
2024/02/08 14:56:41;;;;;;;8.00;2.30;;;9.70;99.90;;;;;;5024690;28;20026;-87
2024/02/08 15:01:38;;;;;;;4.28;1.75;;;9.70;99.90;;;;;;5029851;28;20075;-87
2024/02/08 15:04:17;;;;;;;10.32;1.95;;;9.70;99.90;;;;;;5026882;28;20447;-87
2024/02/08 15:12:27;;;;;;;11.68;2.15;;;9.70;99.90;;;;;;5029650;28;20388;-87
2024/02/08 15:14:56;;;;;;;4.32;1.67;;;9.60;99.90;;;;;;5038337;28;20053;-87
2024/02/08 15:17:26;;;;;;;9.90;2.33;;;9.70;99.90;;;;;;5032269;28;20132;-86
2024/02/08 15:19:52;;;;;;;8.88;2.03;;;9.60;99.90;;;;;;5029891;28;20027;-86
2024/02/08 15:22:18;;;;;;;11.57;2.17;;;9.60;99.90;;;;;;5023966;28;20483;-87
2024/02/08 15:24:48;;;;;;;15.75;2.30;;;9.60;99.90;;;;;;5028463;28;20688;-87
2024/02/08 15:27:31;;;;;;;9.60;2.33;;;9.60;99.90;;;;;;5030472;28;20510;-87
2024/02/08 15:30:10;;;;;;;2.53;1.67;;;9.60;99.90;;;;;;5030480;28;20491;-87